createdAt,value
2022-10-26T00:00:38.776Z,100.00
2022-10-26T00:01:41.035Z,100.00
2022-10-26T00:02:43.367Z,100.00
2022-10-26T00:03:46.733Z,100.00
2022-10-26T00:04:48.922Z,100.00
2022-10-26T00:05:51.147Z,100.00
2022-10-26T00:06:53.251Z,100.00
2022-10-26T00:07:55.400Z,100.00
2022-10-26T00:08:58.216Z,100.00
2022-10-26T00:10:00.351Z,100.00
2022-10-26T00:11:02.937Z,100.00
2022-10-26T00:12:05.383Z,100.00
2022-10-26T00:13:11.092Z,100.00
2022-10-26T00:14:13.227Z,100.00
2022-10-26T00:15:15.411Z,100.00
2022-10-26T00:16:26.978Z,100.00
2022-10-26T00:17:29.121Z,100.00
2022-10-26T00:18:31.275Z,100.00
2022-10-26T00:19:34.220Z,100.00
2022-10-26T00:20:36.452Z,100.00
2022-10-26T00:21:38.550Z,100.00
2022-10-26T00:22:41.143Z,100.00
2022-10-26T00:23:43.354Z,100.00
2022-10-26T00:24:45.572Z,100.00
2022-10-26T00:25:55.492Z,100.00
2022-10-26T00:26:57.636Z,100.00
2022-10-26T00:27:59.792Z,100.00
2022-10-26T00:29:02.034Z,100.00
2022-10-26T00:30:05.818Z,100.00
2022-10-26T00:31:15.879Z,100.00
2022-10-26T00:32:18.046Z,100.00
2022-10-26T00:33:20.289Z,100.00
2022-10-26T00:34:22.474Z,100.00
2022-10-26T00:35:44.717Z,100.00
2022-10-26T00:36:46.842Z,100.00
2022-10-26T00:37:49.193Z,100.00
2022-10-26T00:38:53.327Z,100.00
2022-10-26T00:39:55.488Z,100.00
2022-10-26T00:42:04.726Z,100.00
2022-10-26T00:43:33.621Z,100.00
2022-10-26T00:44:57.954Z,100.00
2022-10-26T00:46:01.753Z,100.00
2022-10-26T00:47:05.266Z,100.00
2022-10-26T00:48:14.166Z,100.00
2022-10-26T00:49:20.872Z,100.00
2022-10-26T00:50:28.704Z,100.00
2022-10-26T00:51:40.547Z,100.00
2022-10-26T00:52:42.976Z,100.00
2022-10-26T00:53:45.669Z,100.00
2022-10-26T00:54:48.010Z,100.00
2022-10-26T00:55:52.486Z,100.00
2022-10-26T00:56:55.418Z,100.00
2022-10-26T00:57:57.994Z,100.00
2022-10-26T00:59:05.527Z,100.00
2022-10-26T01:00:08.861Z,100.00
2022-10-26T01:01:11.551Z,100.00
2022-10-26T01:02:13.798Z,100.00
2022-10-26T01:03:17.012Z,100.00
2022-10-26T01:04:20.025Z,100.00
2022-10-26T01:05:22.265Z,100.00
2022-10-26T01:06:24.438Z,100.00
2022-10-26T01:07:27.591Z,100.00
2022-10-26T01:08:30.398Z,100.00
2022-10-26T01:09:33.153Z,100.00
2022-10-26T01:10:37.871Z,100.00
2022-10-26T01:11:40.048Z,100.00
2022-10-26T01:12:42.500Z,100.00
2022-10-26T01:13:46.359Z,100.00
2022-10-26T01:14:48.885Z,100.00
2022-10-26T01:16:22.981Z,100.00
2022-10-26T01:17:41.733Z,100.00
2022-10-26T01:18:59.076Z,100.00
2022-10-26T01:20:35.295Z,100.00
2022-10-26T01:21:52.705Z,100.00
2022-10-26T01:23:19.785Z,100.00
2022-10-26T01:24:57.243Z,100.00
2022-10-26T01:25:59.298Z,100.00
2022-10-26T01:27:49.898Z,100.00
2022-10-26T01:29:08.973Z,100.00
2022-10-26T01:30:22.404Z,100.00
2022-10-26T01:31:39.311Z,100.00
2022-10-26T01:32:59.505Z,100.00
2022-10-26T01:34:06.435Z,100.00
2022-10-26T01:35:28.613Z,100.00
2022-10-26T01:36:39.173Z,100.00
2022-10-26T01:37:48.249Z,100.00
2022-10-26T01:39:15.058Z,100.00
2022-10-26T01:40:28.094Z,100.00
2022-10-26T01:41:38.559Z,100.00
2022-10-26T01:42:44.481Z,100.00
2022-10-26T01:43:55.158Z,100.00
2022-10-26T01:45:03.904Z,100.00
2022-10-26T01:46:08.016Z,100.00
2022-10-26T01:47:14.030Z,100.00
2022-10-26T01:48:19.096Z,100.00
2022-10-26T01:49:28.967Z,100.00
2022-10-26T01:50:32.421Z,100.00
2022-10-26T01:51:35.561Z,100.00
2022-10-26T01:52:37.876Z,100.00
2022-10-26T01:53:47.190Z,100.00
2022-10-26T01:54:49.580Z,100.00
2022-10-26T01:55:53.733Z,100.00
2022-10-26T01:57:01.207Z,100.00
2022-10-26T01:58:15.265Z,100.00
2022-10-26T01:59:26.741Z,100.00
2022-10-26T02:00:31.468Z,100.00
2022-10-26T02:01:48.835Z,100.00
2022-10-26T02:03:23.670Z,100.00
2022-10-26T02:05:02.067Z,100.00
2022-10-26T02:06:29.575Z,100.00
2022-10-26T02:08:07.783Z,100.00
2022-10-26T02:09:25.094Z,100.00
2022-10-26T02:10:32.775Z,100.00
2022-10-26T02:11:51.239Z,100.00
2022-10-26T02:13:06.924Z,100.00
2022-10-26T02:14:22.430Z,100.00
2022-10-26T02:15:42.188Z,100.00
2022-10-26T02:17:01.995Z,100.00
2022-10-26T02:18:18.446Z,100.00
2022-10-26T02:19:52.808Z,100.00
2022-10-26T02:21:01.291Z,100.00
2022-10-26T02:22:15.743Z,100.00
2022-10-26T02:23:19.927Z,100.00
2022-10-26T02:24:23.362Z,100.00
2022-10-26T02:25:32.024Z,100.00
2022-10-26T02:26:36.142Z,100.00
2022-10-26T02:27:44.489Z,100.00
2022-10-26T02:28:50.746Z,100.00
2022-10-26T02:29:55.753Z,100.00
2022-10-26T02:31:00.928Z,100.00
2022-10-26T02:32:03.975Z,100.00
2022-10-26T02:33:08.320Z,100.00
2022-10-26T02:34:14.071Z,100.00
2022-10-26T02:35:20.758Z,100.00
2022-10-26T02:36:28.069Z,100.00
2022-10-26T02:37:32.714Z,100.00
2022-10-26T02:38:37.602Z,100.00
2022-10-26T02:39:41.797Z,100.00
2022-10-26T02:40:46.689Z,100.00
2022-10-26T02:41:49.835Z,100.00
2022-10-26T02:42:54.050Z,100.00
2022-10-26T02:44:17.523Z,100.00
2022-10-26T02:45:25.930Z,100.00
2022-10-26T02:46:28.832Z,100.00
2022-10-26T02:47:31.322Z,100.00
2022-10-26T02:48:33.608Z,100.00
2022-10-26T02:49:36.053Z,100.00
2022-10-26T02:50:59.171Z,100.00
2022-10-26T02:52:09.324Z,100.00
2022-10-26T02:53:42.773Z,100.00
2022-10-26T02:54:56.973Z,100.00
2022-10-26T02:56:03.838Z,100.00
2022-10-26T02:57:17.519Z,100.00
2022-10-26T02:58:29.618Z,100.00
2022-10-26T02:59:37.602Z,100.00
2022-10-26T03:00:40.239Z,100.00
2022-10-26T03:01:44.186Z,100.00
2022-10-26T03:02:53.302Z,100.00
2022-10-26T03:03:59.793Z,100.00
2022-10-26T03:05:15.714Z,100.00
2022-10-26T03:06:23.124Z,100.00
2022-10-26T03:07:25.457Z,100.00
2022-10-26T03:09:31.205Z,100.00
2022-10-26T03:10:35.556Z,100.00
2022-10-26T03:11:37.660Z,100.00
2022-10-26T03:12:39.768Z,100.00
2022-10-26T03:13:41.878Z,100.00
2022-10-26T03:14:44.194Z,100.00
2022-10-26T03:15:46.378Z,100.00
2022-10-26T03:16:48.649Z,100.00
2022-10-26T03:17:51.077Z,100.00
2022-10-26T03:18:53.472Z,100.00
2022-10-26T03:19:56.183Z,100.00
2022-10-26T03:20:58.296Z,100.00
2022-10-26T03:22:00.416Z,100.00
2022-10-26T03:23:02.625Z,100.00
2022-10-26T03:24:04.981Z,100.00
2022-10-26T03:26:14.655Z,100.00
2022-10-26T03:27:16.828Z,100.00
2022-10-26T03:28:18.970Z,100.00
2022-10-26T03:29:21.188Z,100.00
2022-10-26T03:30:23.339Z,100.00
2022-10-26T03:31:25.446Z,100.00
2022-10-26T03:32:27.663Z,100.00
2022-10-26T03:33:29.851Z,100.00
2022-10-26T03:34:32.184Z,100.00
2022-10-26T03:35:34.517Z,100.00
2022-10-26T03:36:36.664Z,100.00
2022-10-26T03:37:38.757Z,100.00
2022-10-26T03:38:40.899Z,100.00
2022-10-26T03:39:43.070Z,100.00
2022-10-26T03:40:48.465Z,100.00
2022-10-26T03:41:50.730Z,100.00
2022-10-26T03:42:53.085Z,100.00
2022-10-26T03:43:55.288Z,100.00
2022-10-26T03:44:57.460Z,100.00
2022-10-26T03:45:59.656Z,100.00
2022-10-26T03:47:01.825Z,100.00
2022-10-26T03:48:04.312Z,100.00
2022-10-26T03:49:06.483Z,100.00
2022-10-26T03:50:09.153Z,100.00
2022-10-26T03:51:11.291Z,100.00
2022-10-26T03:52:13.386Z,100.00
2022-10-26T03:53:15.680Z,100.00
2022-10-26T03:54:18.475Z,100.00
2022-10-26T03:55:20.719Z,100.00
2022-10-26T03:56:23.068Z,100.00
2022-10-26T03:57:25.231Z,100.00
2022-10-26T03:58:27.417Z,100.00
2022-10-26T03:59:29.623Z,100.00
2022-10-26T04:00:31.817Z,100.00
2022-10-26T04:01:34.064Z,100.00
2022-10-26T04:02:36.897Z,100.00
2022-10-26T04:03:39.106Z,100.00
2022-10-26T04:04:41.315Z,100.00
2022-10-26T04:05:43.487Z,100.00
2022-10-26T04:07:56.631Z,100.00
2022-10-26T04:09:02.379Z,100.00
2022-10-26T04:10:05.979Z,100.00
2022-10-26T04:11:08.205Z,100.00
2022-10-26T04:12:10.348Z,100.00
2022-10-26T04:13:12.526Z,100.00
2022-10-26T04:14:14.703Z,100.00
2022-10-26T04:15:18.838Z,100.00
2022-10-26T04:16:21.502Z,100.00
2022-10-26T04:17:24.790Z,100.00
2022-10-26T04:18:27.026Z,100.00
2022-10-26T04:19:29.180Z,100.00
2022-10-26T04:20:33.149Z,100.00
2022-10-26T04:21:35.505Z,100.00
2022-10-26T04:22:38.175Z,100.00
2022-10-26T04:23:40.306Z,100.00
2022-10-26T04:24:42.462Z,100.00
2022-10-26T04:25:45.087Z,100.00
2022-10-26T04:26:47.227Z,100.00
2022-10-26T04:27:49.543Z,100.00
2022-10-26T04:28:51.867Z,100.00
2022-10-26T04:29:53.979Z,100.00
2022-10-26T04:30:56.177Z,100.00
2022-10-26T04:31:58.272Z,100.00
2022-10-26T04:33:00.779Z,100.00
2022-10-26T04:34:02.985Z,100.00
2022-10-26T04:35:05.456Z,100.00
2022-10-26T04:36:08.127Z,100.00
2022-10-26T04:37:10.392Z,100.00
2022-10-26T04:38:12.524Z,100.00
2022-10-26T04:39:14.742Z,100.00
2022-10-26T04:40:17.017Z,100.00
2022-10-26T04:41:19.331Z,100.00
2022-10-26T04:42:21.609Z,100.00
2022-10-26T04:43:24.044Z,100.00
2022-10-26T04:44:26.233Z,100.00
2022-10-26T04:45:30.694Z,100.00
2022-10-26T04:46:32.960Z,100.00
2022-10-26T04:47:35.083Z,100.00
2022-10-26T04:48:37.195Z,100.00
2022-10-26T04:49:39.334Z,100.00
2022-10-26T04:50:41.503Z,100.00
2022-10-26T04:51:44.402Z,100.00
2022-10-26T04:52:51.153Z,100.00
2022-10-26T04:53:54.940Z,100.00
2022-10-26T04:54:57.031Z,100.00
2022-10-26T04:56:00.782Z,100.00
2022-10-26T04:57:03.033Z,100.00
2022-10-26T04:58:06.107Z,100.00
2022-10-26T04:59:08.249Z,100.00
2022-10-26T05:00:11.172Z,100.00
2022-10-26T05:01:13.367Z,100.00
2022-10-26T05:02:15.791Z,100.00
2022-10-26T05:03:17.978Z,100.00
2022-10-26T05:04:20.055Z,100.00
2022-10-26T05:05:22.166Z,100.00
2022-10-26T05:06:24.271Z,100.00
2022-10-26T05:07:26.409Z,100.00
2022-10-26T05:08:31.570Z,100.00
2022-10-26T05:09:33.678Z,100.00
2022-10-26T05:10:35.855Z,100.00
2022-10-26T05:11:37.959Z,100.00
2022-10-26T05:12:40.061Z,100.00
2022-10-26T05:13:42.171Z,100.00
2022-10-26T05:14:44.284Z,100.00
2022-10-26T05:15:46.499Z,100.00
2022-10-26T05:16:51.078Z,100.00
2022-10-26T05:18:02.805Z,100.00
2022-10-26T05:19:04.969Z,100.00
2022-10-26T05:20:10.886Z,100.00
2022-10-26T05:21:19.201Z,100.00
2022-10-26T05:22:22.671Z,100.00
2022-10-26T05:23:24.995Z,100.00
2022-10-26T05:24:27.175Z,100.00
2022-10-26T05:25:31.525Z,100.00
2022-10-26T05:26:33.686Z,100.00
2022-10-26T05:27:35.812Z,100.00
2022-10-26T05:28:37.954Z,100.00
2022-10-26T05:29:40.121Z,100.00
2022-10-26T05:30:43.927Z,100.00
2022-10-26T05:31:46.113Z,100.00
2022-10-26T05:32:54.672Z,100.00
2022-10-26T05:33:56.848Z,100.00
2022-10-26T05:34:58.933Z,100.00
2022-10-26T05:36:01.030Z,100.00
2022-10-26T05:37:03.137Z,100.00
2022-10-26T05:38:16.886Z,100.00
2022-10-26T05:39:19.120Z,100.00
2022-10-26T05:40:21.457Z,100.00
2022-10-26T05:41:23.573Z,100.00
2022-10-26T05:42:25.655Z,100.00
2022-10-26T05:43:27.978Z,100.00
2022-10-26T05:44:30.103Z,100.00
2022-10-26T05:45:32.227Z,100.00
2022-10-26T05:46:34.369Z,100.00
2022-10-26T05:47:43.338Z,100.00
2022-10-26T05:48:45.507Z,100.00
2022-10-26T05:49:48.869Z,100.00
2022-10-26T05:50:51.233Z,100.00
2022-10-26T05:51:53.346Z,100.00
2022-10-26T05:52:55.879Z,100.00
2022-10-26T05:53:58.008Z,100.00
2022-10-26T05:55:00.179Z,100.00
2022-10-26T05:56:04.938Z,100.00
2022-10-26T05:57:13.718Z,100.00
2022-10-26T05:58:16.574Z,100.00
2022-10-26T05:59:18.954Z,100.00
2022-10-26T06:00:23.879Z,100.00
2022-10-26T06:01:39.815Z,100.00
2022-10-26T06:03:25.908Z,100.00
2022-10-26T06:04:43.193Z,100.00
2022-10-26T06:05:53.308Z,100.00
2022-10-26T06:06:56.619Z,100.00
2022-10-26T06:07:58.957Z,100.00
2022-10-26T06:09:01.357Z,100.00
2022-10-26T06:10:04.479Z,100.00
2022-10-26T06:11:07.810Z,100.00
2022-10-26T06:12:12.703Z,100.00
2022-10-26T06:13:17.296Z,100.00
2022-10-26T06:14:19.876Z,100.00
2022-10-26T06:15:22.578Z,100.00
2022-10-26T06:16:30.483Z,100.00
2022-10-26T06:17:38.660Z,100.00
2022-10-26T06:18:43.481Z,100.00
2022-10-26T06:20:22.182Z,100.00
2022-10-26T06:21:33.116Z,100.00
2022-10-26T06:22:44.339Z,100.00
2022-10-26T06:23:53.471Z,100.00
2022-10-26T06:25:08.441Z,100.00
2022-10-26T06:26:27.571Z,100.00
2022-10-26T06:27:56.952Z,100.00
2022-10-26T06:29:17.960Z,100.00
2022-10-26T06:30:23.227Z,100.00
2022-10-26T06:31:25.333Z,100.00
2022-10-26T06:32:28.154Z,100.00
2022-10-26T06:33:31.013Z,100.00
2022-10-26T06:34:36.167Z,100.00
2022-10-26T06:35:40.878Z,100.00
2022-10-26T06:36:43.449Z,100.00
2022-10-26T06:37:46.544Z,100.00
2022-10-26T06:38:54.162Z,100.00
2022-10-26T06:39:58.515Z,100.00
2022-10-26T06:41:01.773Z,100.00
2022-10-26T06:42:04.305Z,100.00
2022-10-26T06:43:16.823Z,100.00
2022-10-26T06:44:23.712Z,100.00
2022-10-26T06:45:26.226Z,100.00
2022-10-26T06:46:37.683Z,100.00
2022-10-26T06:48:02.598Z,100.00
2022-10-26T06:49:19.927Z,100.00
2022-10-26T06:50:41.056Z,100.00
2022-10-26T06:52:07.657Z,100.00
2022-10-26T06:53:17.951Z,100.00
2022-10-26T06:54:43.342Z,100.00
2022-10-26T06:55:47.520Z,100.00
2022-10-26T06:56:51.294Z,100.00
2022-10-26T06:57:53.578Z,100.00
2022-10-26T06:59:03.451Z,100.00
2022-10-26T07:00:18.919Z,100.00
2022-10-26T07:01:21.206Z,100.00
2022-10-26T07:02:24.050Z,100.00
2022-10-26T07:03:26.298Z,100.00
2022-10-26T07:04:28.475Z,100.00
2022-10-26T07:05:30.602Z,100.00
2022-10-26T07:06:34.426Z,100.00
2022-10-26T07:07:44.868Z,100.00
2022-10-26T07:08:47.001Z,100.00
2022-10-26T07:09:49.550Z,100.00
2022-10-26T07:10:51.787Z,100.00
2022-10-26T07:11:53.930Z,100.00
2022-10-26T07:12:56.037Z,100.00
2022-10-26T07:13:58.271Z,100.00
2022-10-26T07:15:00.874Z,100.00
2022-10-26T07:16:03.344Z,100.00
2022-10-26T07:17:05.938Z,100.00
2022-10-26T07:18:08.680Z,100.00
2022-10-26T07:19:10.847Z,100.00
2022-10-26T07:20:13.543Z,100.00
2022-10-26T07:21:15.677Z,100.00
2022-10-26T07:22:18.096Z,100.00
2022-10-26T07:23:20.374Z,100.00
2022-10-26T07:24:23.748Z,100.00
2022-10-26T07:25:26.461Z,100.00
2022-10-26T07:26:28.651Z,100.00
2022-10-26T07:27:30.773Z,100.00
2022-10-26T07:28:32.886Z,100.00
2022-10-26T07:29:35.450Z,100.00
2022-10-26T07:30:39.210Z,100.00
2022-10-26T07:31:41.460Z,100.00
2022-10-26T07:32:43.769Z,100.00
2022-10-26T07:33:46.184Z,100.00
2022-10-26T07:34:48.264Z,100.00
2022-10-26T07:35:50.380Z,100.00
2022-10-26T07:36:52.806Z,100.00
2022-10-26T07:37:59.280Z,100.00
2022-10-26T07:39:01.487Z,100.00
2022-10-26T07:40:06.620Z,100.00
2022-10-26T07:41:09.094Z,100.00
2022-10-26T07:42:11.283Z,100.00
2022-10-26T07:43:13.401Z,100.00
2022-10-26T07:44:15.591Z,100.00
2022-10-26T07:45:17.744Z,100.00
2022-10-26T07:46:19.882Z,100.00
2022-10-26T07:47:22.119Z,100.00
2022-10-26T07:48:24.316Z,100.00
2022-10-26T07:49:27.889Z,100.00
2022-10-26T07:50:30.283Z,100.00
2022-10-26T07:51:32.422Z,100.00
2022-10-26T07:52:36.968Z,100.00
2022-10-26T07:53:39.236Z,100.00
2022-10-26T07:54:41.418Z,100.00
2022-10-26T07:55:43.544Z,100.00
2022-10-26T07:56:48.639Z,100.00
2022-10-26T07:57:54.426Z,100.00
2022-10-26T07:58:58.108Z,100.00
2022-10-26T08:00:00.226Z,100.00
2022-10-26T08:01:07.625Z,100.00
2022-10-26T08:02:10.265Z,100.00
2022-10-26T08:03:12.397Z,100.00
2022-10-26T08:04:15.122Z,100.00
2022-10-26T08:05:17.737Z,100.00
2022-10-26T08:06:23.532Z,100.00
2022-10-26T08:07:26.137Z,100.00
2022-10-26T08:08:28.353Z,100.00
2022-10-26T08:09:30.572Z,100.00
2022-10-26T08:10:32.728Z,100.00
2022-10-26T08:11:37.028Z,97.86
2022-10-26T08:12:39.882Z,89.28
2022-10-26T08:13:42.489Z,85.67
2022-10-26T08:14:45.104Z,85.11
2022-10-26T08:15:47.843Z,84.52
2022-10-26T08:16:52.447Z,87.25
2022-10-26T08:17:54.818Z,88.73
2022-10-26T08:18:57.154Z,92.41
2022-10-26T08:19:59.320Z,95.16
2022-10-26T08:21:11.212Z,100.00
2022-10-26T08:23:16.917Z,99.38
2022-10-26T08:24:19.031Z,99.59
2022-10-26T08:25:21.599Z,96.74
2022-10-26T08:26:23.951Z,92.90
2022-10-26T08:27:26.196Z,88.95
2022-10-26T08:28:29.516Z,86.62
2022-10-26T08:29:31.670Z,83.77
2022-10-26T08:31:37.146Z,86.12
2022-10-26T08:32:39.317Z,85.88
2022-10-26T08:33:44.906Z,86.77
2022-10-26T08:34:47.507Z,88.88
2022-10-26T08:35:54.800Z,92.47
2022-10-26T08:36:56.936Z,94.47
2022-10-26T08:37:59.107Z,99.44
2022-10-26T08:39:01.259Z,100.00
2022-10-26T08:40:04.915Z,100.00
2022-10-26T08:41:09.180Z,100.00
2022-10-26T08:42:18.590Z,100.00
2022-10-26T08:44:02.450Z,100.00
2022-10-26T08:45:17.726Z,100.00
2022-10-26T08:46:25.822Z,100.00
2022-10-26T08:47:39.389Z,100.00
2022-10-26T08:48:50.853Z,100.00
2022-10-26T08:50:01.667Z,100.00
2022-10-26T08:51:07.847Z,100.00
2022-10-26T08:52:14.575Z,100.00
2022-10-26T08:53:38.377Z,100.00
2022-10-26T08:54:54.874Z,100.00
2022-10-26T08:56:01.806Z,100.00
2022-10-26T08:57:25.916Z,100.00
2022-10-26T08:58:38.159Z,100.00
2022-10-26T08:59:50.922Z,100.00
2022-10-26T09:00:53.544Z,100.00
2022-10-26T09:01:55.927Z,100.00
2022-10-26T09:02:58.162Z,100.00
2022-10-26T09:05:18.624Z,96.37
2022-10-26T09:06:43.755Z,86.39
2022-10-26T09:08:05.792Z,79.42
2022-10-26T09:09:21.150Z,73.78
2022-10-26T09:10:40.567Z,71.09
2022-10-26T09:11:48.672Z,68.90
2022-10-26T09:13:09.990Z,67.31
2022-10-26T09:14:32.683Z,65.11
2022-10-26T09:15:37.512Z,66.40
2022-10-26T09:16:56.699Z,62.45
2022-10-26T09:18:28.024Z,58.91
2022-10-26T09:19:42.827Z,55.52
2022-10-26T09:20:49.666Z,54.76
2022-10-26T09:22:07.017Z,58.03
2022-10-26T09:23:15.332Z,56.06
2022-10-26T09:24:31.071Z,54.08
2022-10-26T09:25:40.238Z,55.88
2022-10-26T09:26:42.339Z,55.11
2022-10-26T09:27:57.446Z,52.25
2022-10-26T09:29:06.927Z,49.47
2022-10-26T09:30:18.996Z,50.05
2022-10-26T09:31:22.258Z,50.22
2022-10-26T09:32:51.413Z,51.22
2022-10-26T09:33:55.103Z,49.66
2022-10-26T09:35:02.886Z,48.66
2022-10-26T09:36:26.808Z,48.19
2022-10-26T09:37:34.179Z,48.28
2022-10-26T09:38:49.263Z,45.97
2022-10-26T09:40:17.048Z,46.66
2022-10-26T09:41:33.186Z,47.47
2022-10-26T09:43:02.665Z,45.98
2022-10-26T09:44:31.166Z,46.35
2022-10-26T09:45:41.908Z,45.36
2022-10-26T09:46:57.014Z,44.64
2022-10-26T09:48:11.972Z,44.45
2022-10-26T09:49:18.310Z,43.25
2022-10-26T09:50:32.165Z,43.23
2022-10-26T09:51:38.011Z,44.28
2022-10-26T09:52:40.146Z,44.82
2022-10-26T09:53:42.286Z,45.72
2022-10-26T09:54:45.001Z,45.49
2022-10-26T09:55:49.878Z,44.49
2022-10-26T09:56:56.879Z,45.06
2022-10-26T09:58:03.427Z,42.66
2022-10-26T09:59:06.980Z,42.47
2022-10-26T10:00:20.736Z,42.71
2022-10-26T10:01:36.789Z,43.84
2022-10-26T10:02:44.444Z,43.92
2022-10-26T10:03:46.670Z,44.94
2022-10-26T10:04:48.763Z,45.87
2022-10-26T10:05:52.534Z,46.47
2022-10-26T10:07:01.276Z,45.53
2022-10-26T10:08:11.319Z,49.38
2022-10-26T10:09:16.430Z,50.57
2022-10-26T10:10:21.548Z,52.44
2022-10-26T10:11:55.186Z,53.48
2022-10-26T10:12:57.411Z,53.00
2022-10-26T10:14:08.402Z,56.08
2022-10-26T10:15:19.867Z,57.27
2022-10-26T10:16:25.122Z,59.99
2022-10-26T10:17:27.656Z,59.79
2022-10-26T10:18:30.242Z,61.22
2022-10-26T10:19:35.738Z,63.79
2022-10-26T10:20:38.033Z,64.61
2022-10-26T10:21:45.397Z,65.57
2022-10-26T10:23:24.555Z,67.79
2022-10-26T10:24:26.710Z,69.86
2022-10-26T10:25:39.875Z,70.18
2022-10-26T10:27:02.313Z,71.02
2022-10-26T10:28:22.350Z,71.83
2022-10-26T10:29:43.677Z,71.81
2022-10-26T10:30:54.997Z,75.00
2022-10-26T10:32:02.726Z,74.65
2022-10-26T10:33:12.156Z,74.49
2022-10-26T10:34:17.703Z,74.99
2022-10-26T10:35:25.444Z,74.61
2022-10-26T10:36:30.355Z,75.77
2022-10-26T10:37:35.922Z,74.45
2022-10-26T10:38:41.567Z,75.26
2022-10-26T10:39:43.718Z,75.50
2022-10-26T10:41:06.433Z,76.20
2022-10-26T10:42:21.881Z,75.36
2022-10-26T10:43:25.021Z,75.91
2022-10-26T10:44:30.089Z,76.72
2022-10-26T10:45:34.827Z,77.13
2022-10-26T10:46:37.811Z,79.20
2022-10-26T10:48:51.935Z,80.21
2022-10-26T10:49:58.837Z,80.40
2022-10-26T10:51:12.358Z,80.54
2022-10-26T10:52:29.739Z,78.81
2022-10-26T10:53:37.433Z,77.36
2022-10-26T10:54:39.890Z,76.05
2022-10-26T10:55:52.498Z,74.46
2022-10-26T10:57:55.581Z,72.44
2022-10-26T10:59:27.085Z,71.31
2022-10-26T11:00:29.640Z,71.36
2022-10-26T11:01:38.855Z,70.33
2022-10-26T11:03:26.209Z,67.94
2022-10-26T11:04:46.881Z,67.92
2022-10-26T11:05:48.993Z,66.09
2022-10-26T11:06:52.591Z,66.75
2022-10-26T11:07:58.029Z,66.01
2022-10-26T11:09:07.997Z,66.93
2022-10-26T11:10:16.028Z,65.70
2022-10-26T11:11:45.461Z,64.07
2022-10-26T11:12:56.492Z,64.07
2022-10-26T11:14:28.791Z,65.50
2022-10-26T11:15:35.572Z,67.11
2022-10-26T11:16:37.692Z,66.87
2022-10-26T11:17:56.134Z,66.26
2022-10-26T11:19:12.607Z,65.30
2022-10-26T11:20:21.154Z,64.07
2022-10-26T11:21:29.471Z,63.42
2022-10-26T11:22:39.745Z,61.39
2022-10-26T11:23:52.917Z,57.84
2022-10-26T11:25:03.179Z,56.41
2022-10-26T11:26:43.607Z,54.72
2022-10-26T11:28:39.360Z,48.75
2022-10-26T11:29:48.386Z,48.21
2022-10-26T11:30:58.907Z,47.83
2022-10-26T11:32:08.634Z,44.96
2022-10-26T11:33:15.518Z,45.29
2022-10-26T11:34:40.864Z,44.20
2022-10-26T11:35:56.537Z,42.42
2022-10-26T11:37:34.583Z,41.35
2022-10-26T11:38:58.688Z,41.65
2022-10-26T11:40:20.676Z,42.10
2022-10-26T11:41:33.674Z,40.89
2022-10-26T11:42:46.338Z,40.71
2022-10-26T11:43:51.249Z,39.85
2022-10-26T11:45:32.351Z,39.62
2022-10-26T11:46:49.774Z,39.54
2022-10-26T11:47:58.023Z,38.33
2022-10-26T11:49:17.497Z,37.52
2022-10-26T11:50:27.531Z,37.17
2022-10-26T11:51:39.162Z,37.49
2022-10-26T11:52:48.198Z,36.79
2022-10-26T11:53:52.091Z,38.04
2022-10-26T11:54:56.969Z,38.38
2022-10-26T11:55:59.741Z,38.52
2022-10-26T11:57:04.805Z,38.44
2022-10-26T11:58:10.498Z,38.18
2022-10-26T11:59:22.629Z,38.04
2022-10-26T12:00:26.981Z,39.40
2022-10-26T12:01:30.546Z,40.68
2022-10-26T12:02:39.984Z,41.27
2022-10-26T12:03:47.566Z,41.67
2022-10-26T12:04:57.861Z,42.35
2022-10-26T12:06:00.047Z,41.84
2022-10-26T12:07:06.956Z,43.34
2022-10-26T12:08:51.680Z,43.17
2022-10-26T12:09:55.635Z,44.40
2022-10-26T12:11:09.446Z,46.44
2022-10-26T12:12:37.182Z,48.80
2022-10-26T12:13:46.589Z,50.39
2022-10-26T12:15:09.891Z,55.11
2022-10-26T12:16:43.182Z,55.16
2022-10-26T12:17:52.875Z,59.09
2022-10-26T12:19:01.765Z,60.20
2022-10-26T12:20:06.686Z,59.43
2022-10-26T12:21:10.776Z,59.17
2022-10-26T12:22:16.279Z,60.43
2022-10-26T12:23:28.137Z,59.25
2022-10-26T12:24:45.475Z,60.91
2022-10-26T12:25:47.608Z,60.85
2022-10-26T12:27:33.264Z,61.33
2022-10-26T12:28:35.428Z,63.35
2022-10-26T12:29:49.112Z,63.52
2022-10-26T12:30:51.311Z,64.75
2022-10-26T12:31:53.545Z,65.50
2022-10-26T12:33:29.150Z,64.92
2022-10-26T12:34:31.293Z,63.38
2022-10-26T12:35:42.024Z,63.46
2022-10-26T12:37:09.950Z,62.84
2022-10-26T12:38:23.935Z,59.70
2022-10-26T12:39:30.492Z,58.15
2022-10-26T12:40:32.550Z,55.42
2022-10-26T12:41:39.080Z,53.03
2022-10-26T12:42:41.802Z,52.80
2022-10-26T12:44:47.223Z,52.70
2022-10-26T12:46:10.907Z,51.54
2022-10-26T12:47:28.168Z,50.84
2022-10-26T12:48:48.320Z,52.17
2022-10-26T12:49:59.598Z,52.27
2022-10-26T12:51:18.867Z,54.79
2022-10-26T12:52:26.146Z,53.18
2022-10-26T12:53:28.486Z,56.55
2022-10-26T12:54:41.805Z,57.24
2022-10-26T12:55:47.571Z,55.36
2022-10-26T12:56:49.650Z,56.61
2022-10-26T12:58:12.591Z,54.67
2022-10-26T12:59:23.994Z,55.37
2022-10-26T13:00:27.945Z,55.59
2022-10-26T13:01:45.406Z,54.21
2022-10-26T13:02:56.394Z,55.28
2022-10-26T13:04:07.638Z,53.26
2022-10-26T13:05:34.445Z,53.73
2022-10-26T13:07:10.375Z,52.24
2022-10-26T13:08:13.985Z,52.59
2022-10-26T13:09:27.585Z,50.42
2022-10-26T13:10:29.779Z,51.07
2022-10-26T13:11:35.735Z,50.24
2022-10-26T13:12:59.642Z,49.86
2022-10-26T13:14:08.715Z,49.95
2022-10-26T13:15:24.698Z,51.20
2022-10-26T13:16:28.603Z,54.23
2022-10-26T13:18:45.094Z,56.39
2022-10-26T13:19:49.379Z,55.12
2022-10-26T13:21:06.899Z,56.06
2022-10-26T13:22:16.033Z,55.95
2022-10-26T13:23:27.219Z,55.83
2022-10-26T13:24:32.522Z,56.61
2022-10-26T13:25:34.809Z,55.99
2022-10-26T13:27:05.687Z,56.40
2022-10-26T13:28:32.621Z,57.25
2022-10-26T13:30:03.785Z,56.19
2022-10-26T13:31:32.779Z,54.59
2022-10-26T13:32:48.301Z,55.09
2022-10-26T13:33:54.503Z,55.82
2022-10-26T13:35:00.059Z,56.50
2022-10-26T13:36:06.382Z,57.65
2022-10-26T13:37:23.407Z,58.55
2022-10-26T13:38:32.096Z,59.54
2022-10-26T13:39:41.911Z,59.84
2022-10-26T13:40:44.646Z,59.04
2022-10-26T13:41:51.197Z,60.16
2022-10-26T13:42:58.794Z,59.54
2022-10-26T13:44:06.290Z,59.63
2022-10-26T13:45:13.815Z,58.81
2022-10-26T13:46:26.247Z,58.99
2022-10-26T13:47:34.280Z,60.23
2022-10-26T13:48:39.499Z,61.65
2022-10-26T13:49:45.943Z,64.15
2022-10-26T13:50:52.560Z,63.53
2022-10-26T13:51:56.119Z,62.17
2022-10-26T13:53:08.145Z,63.90
2022-10-26T13:54:23.287Z,64.11
2022-10-26T13:55:37.831Z,65.35
2022-10-26T13:57:12.281Z,64.33
2022-10-26T13:58:33.614Z,64.06
2022-10-26T13:59:41.625Z,64.21
2022-10-26T14:01:16.103Z,62.57
2022-10-26T14:02:19.937Z,63.27
2022-10-26T14:03:22.153Z,63.93
2022-10-26T14:04:28.366Z,64.21
2022-10-26T14:05:31.571Z,65.41
2022-10-26T14:06:40.272Z,65.81
2022-10-26T14:08:51.724Z,65.41
2022-10-26T14:09:56.460Z,65.16
2022-10-26T14:10:59.841Z,65.33
2022-10-26T14:12:02.490Z,64.16
2022-10-26T14:13:15.895Z,64.39
2022-10-26T14:14:22.609Z,65.40
2022-10-26T14:15:30.851Z,64.15
2022-10-26T14:16:34.498Z,66.95
2022-10-26T14:17:36.727Z,67.88
2022-10-26T14:18:39.288Z,67.13
2022-10-26T14:19:41.617Z,65.75
2022-10-26T14:20:50.219Z,64.63
2022-10-26T14:21:53.252Z,63.81
2022-10-26T14:22:55.455Z,64.02
2022-10-26T14:23:59.575Z,63.72
2022-10-26T14:25:01.784Z,66.27
2022-10-26T14:26:35.688Z,68.16
2022-10-26T14:27:40.966Z,66.91
2022-10-26T14:28:50.421Z,66.78
2022-10-26T14:30:17.129Z,66.08
2022-10-26T14:31:26.662Z,66.49
2022-10-26T14:32:32.073Z,65.72
2022-10-26T14:33:34.201Z,66.20
2022-10-26T14:34:36.333Z,66.81